createdAt,value
2019-02-25T00:03:25.988Z,65.70
2019-02-25T00:05:54.595Z,65.80
2019-02-25T00:08:23.267Z,65.80
2019-02-25T00:11:11.261Z,67.20
2019-02-25T00:13:39.058Z,67.50
2019-02-25T00:16:09.471Z,68.10
2019-02-25T00:18:38.008Z,67.60
2019-02-25T00:21:06.659Z,67.40
2019-02-25T00:23:35.274Z,67.80
2019-02-25T00:26:03.910Z,68.10
2019-02-25T00:28:32.514Z,67.90
2019-02-25T00:31:01.058Z,67.90
2019-02-25T00:33:29.623Z,68.00
2019-02-25T00:35:58.171Z,67.60
2019-02-25T00:38:26.743Z,67.70
2019-02-25T00:40:55.291Z,67.20
2019-02-25T00:43:23.835Z,66.70
2019-02-25T00:45:52.419Z,66.40
2019-02-25T00:48:21.308Z,66.00
2019-02-25T00:50:49.875Z,66.50
2019-02-25T00:53:18.417Z,65.70
2019-02-25T00:55:47.028Z,65.70
2019-02-25T00:58:15.603Z,66.40
2019-02-25T01:00:44.223Z,67.10
2019-02-25T01:03:12.766Z,67.80
2019-02-25T01:05:41.400Z,67.80
2019-02-25T01:08:10.001Z,67.90
2019-02-25T01:10:38.855Z,68.00
2019-02-25T01:13:07.463Z,68.10
2019-02-25T01:15:36.175Z,68.00
2019-02-25T01:18:05.115Z,68.40
2019-02-25T01:20:33.779Z,68.50
2019-02-25T01:23:02.398Z,69.40
2019-02-25T01:25:30.943Z,69.40
2019-02-25T01:27:59.518Z,68.90
2019-02-25T01:30:28.074Z,69.00
2019-02-25T01:32:56.660Z,69.30
2019-02-25T01:35:37.924Z,69.60
2019-02-25T01:38:06.565Z,69.70
2019-02-25T01:40:35.175Z,69.90
2019-02-25T01:43:05.417Z,69.80
2019-02-25T01:45:34.043Z,70.90
2019-02-25T01:48:02.578Z,70.60
2019-02-25T01:50:31.167Z,70.60
2019-02-25T01:52:59.715Z,70.90
2019-02-25T01:55:28.335Z,70.90
2019-02-25T01:57:56.899Z,71.20
2019-02-25T02:00:25.439Z,71.10
2019-02-25T02:02:53.983Z,71.00
2019-02-25T02:05:24.464Z,70.90
2019-02-25T02:07:52.882Z,71.10
2019-02-25T02:10:21.480Z,71.10
2019-02-25T02:12:50.100Z,71.00
2019-02-25T02:15:20.847Z,71.10
2019-02-25T02:17:49.484Z,71.00
2019-02-25T02:20:18.572Z,71.30
2019-02-25T02:22:47.102Z,71.50
2019-02-25T02:25:15.775Z,71.50
2019-02-25T02:27:44.398Z,71.90
2019-02-25T02:30:33.831Z,71.70
2019-02-25T02:33:02.378Z,71.80
2019-02-25T02:35:30.976Z,72.60
2019-02-25T02:37:59.559Z,73.80
2019-02-25T02:40:28.107Z,73.20
2019-02-25T02:43:20.485Z,73.00
2019-02-25T02:45:57.915Z,73.00
2019-02-25T02:48:47.359Z,74.00
2019-02-25T02:51:15.901Z,73.80
2019-02-25T02:54:04.417Z,74.20
2019-02-25T02:56:32.959Z,74.00
2019-02-25T02:59:01.500Z,74.60
2019-02-25T03:01:30.082Z,74.30
2019-02-25T03:03:58.635Z,74.30
2019-02-25T03:06:27.219Z,74.40
2019-02-25T03:08:55.764Z,74.40
2019-02-25T03:11:24.311Z,74.40
2019-02-25T03:13:52.968Z,74.60
2019-02-25T03:16:21.514Z,74.50
2019-02-25T03:18:50.056Z,74.70
2019-02-25T03:21:18.643Z,74.90
2019-02-25T03:23:47.184Z,75.50
2019-02-25T03:26:15.787Z,75.40
2019-02-25T03:28:44.464Z,75.20
2019-02-25T03:31:13.030Z,75.20
2019-02-25T03:33:41.611Z,75.30
2019-02-25T03:36:10.173Z,75.10
2019-02-25T03:38:38.712Z,75.80
2019-02-25T03:41:07.359Z,75.20
2019-02-25T03:43:36.059Z,75.30
2019-02-25T03:46:04.707Z,76.40
2019-02-25T03:48:33.251Z,76.40
2019-02-25T03:51:21.154Z,75.80
2019-02-25T03:53:48.923Z,75.90
2019-02-25T03:56:17.484Z,76.20
2019-02-25T03:58:46.196Z,75.60
2019-02-25T04:01:14.880Z,75.70
2019-02-25T04:03:43.575Z,76.00
2019-02-25T04:06:12.212Z,76.20
2019-02-25T04:08:40.908Z,76.20
2019-02-25T04:11:09.465Z,76.10
2019-02-25T04:13:38.017Z,76.30
2019-02-25T04:16:06.555Z,76.40
2019-02-25T04:18:36.175Z,76.20
2019-02-25T04:21:04.798Z,77.10
2019-02-25T04:23:33.363Z,76.50
2019-02-25T04:26:01.911Z,76.80
2019-02-25T04:28:30.491Z,77.80
2019-02-25T04:30:59.137Z,77.70
2019-02-25T04:33:27.692Z,77.70
2019-02-25T04:35:56.924Z,78.50
2019-02-25T04:38:45.008Z,78.20
2019-02-25T04:41:14.254Z,79.00
2019-02-25T04:43:42.794Z,78.30
2019-02-25T04:46:11.339Z,78.30
2019-02-25T04:48:39.885Z,79.10
2019-02-25T04:51:08.437Z,79.50
2019-02-25T04:53:37.058Z,79.60
2019-02-25T04:56:05.710Z,78.90
2019-02-25T04:58:53.638Z,79.90
2019-02-25T05:01:22.259Z,79.40
2019-02-25T05:03:50.827Z,79.00
2019-02-25T05:06:19.402Z,80.20
2019-02-25T05:08:47.953Z,79.90
2019-02-25T05:11:16.755Z,79.50
2019-02-25T05:13:45.329Z,79.50
2019-02-25T05:16:13.949Z,79.80
2019-02-25T05:19:01.856Z,79.60
2019-02-25T05:21:29.612Z,79.30
2019-02-25T05:23:58.189Z,79.50
2019-02-25T05:26:26.722Z,79.90
2019-02-25T05:28:55.202Z,80.00
2019-02-25T05:31:23.775Z,80.10
2019-02-25T05:33:52.742Z,81.70
2019-02-25T05:36:21.287Z,81.00
2019-02-25T05:38:49.857Z,81.50
2019-02-25T05:41:18.503Z,80.90
2019-02-25T05:43:47.075Z,80.90
2019-02-25T05:46:15.626Z,81.00
2019-02-25T05:48:44.203Z,81.90
2019-02-25T05:51:12.759Z,81.40
2019-02-25T05:53:41.296Z,81.50
2019-02-25T05:56:10.159Z,81.70
2019-02-25T05:58:38.714Z,83.10
2019-02-25T06:01:07.631Z,82.10
2019-02-25T06:03:36.430Z,81.70
2019-02-25T06:06:05.001Z,82.70
2019-02-25T06:08:33.615Z,81.80
2019-02-25T06:11:03.788Z,81.70
2019-02-25T06:13:32.415Z,82.50
2019-02-25T06:16:01.028Z,81.70
2019-02-25T06:18:29.982Z,82.00
2019-02-25T06:20:58.517Z,81.50
2019-02-25T06:23:27.131Z,81.90
2019-02-25T06:25:55.823Z,82.00
2019-02-25T06:28:26.340Z,83.20
2019-02-25T06:30:54.574Z,82.30
2019-02-25T06:33:23.530Z,82.00
2019-02-25T06:35:52.095Z,81.80
2019-02-25T06:38:21.102Z,81.70
2019-02-25T06:40:49.642Z,81.80
2019-02-25T06:43:18.990Z,81.60
2019-02-25T06:45:47.534Z,81.50
2019-02-25T06:48:16.354Z,81.90
2019-02-25T06:50:44.830Z,81.90
2019-02-25T06:53:13.462Z,81.70
2019-02-25T06:55:42.007Z,81.50
2019-02-25T06:58:10.565Z,81.30
2019-02-25T07:00:39.252Z,81.10
2019-02-25T07:03:07.768Z,82.00
2019-02-25T07:05:38.060Z,81.60
2019-02-25T07:08:08.705Z,80.90
2019-02-25T07:13:33.211Z,80.10
2019-02-25T07:16:15.207Z,80.50
2019-02-25T07:18:54.298Z,80.70
2019-02-25T07:26:57.306Z,79.50
2019-02-25T07:29:27.424Z,79.50
2019-02-25T07:31:57.634Z,78.60
2019-02-25T07:34:43.079Z,78.20
2019-02-25T07:37:16.104Z,77.40
2019-02-25T07:42:47.692Z,74.80
2019-02-25T07:45:18.149Z,73.60
2019-02-25T07:47:54.528Z,71.40
2019-02-25T07:50:24.782Z,66.50
2019-02-25T07:52:54.970Z,62.40
2019-02-25T07:55:43.430Z,58.90
2019-02-25T07:58:16.326Z,57.00
2019-02-25T08:00:46.828Z,54.80
2019-02-25T08:03:19.776Z,53.50
2019-02-25T08:05:50.339Z,48.80
2019-02-25T08:08:26.441Z,48.20
2019-02-25T08:10:59.284Z,45.80
2019-02-25T08:13:44.560Z,42.30
2019-02-25T08:16:14.838Z,40.00
2019-02-25T08:18:45.024Z,42.50
2019-02-25T08:29:29.723Z,37.90
2019-02-25T08:37:57.567Z,36.50
2019-02-25T08:49:19.549Z,33.30
2019-02-25T08:51:48.220Z,34.20
2019-02-25T08:54:16.936Z,34.20
2019-02-25T08:56:45.549Z,31.70
2019-02-25T08:59:14.230Z,32.00
2019-02-25T09:01:42.883Z,30.60
2019-02-25T09:04:11.487Z,30.80
2019-02-25T09:06:40.029Z,29.90
2019-02-25T09:09:08.598Z,29.40
2019-02-25T09:11:37.289Z,29.80
2019-02-25T09:14:05.971Z,30.60
2019-02-25T09:16:34.623Z,29.80
2019-02-25T09:19:03.171Z,32.10
2019-02-25T09:21:32.241Z,28.50
2019-02-25T09:26:56.838Z,29.60
2019-02-25T09:29:25.396Z,29.60
2019-02-25T09:31:54.276Z,28.60
2019-02-25T09:34:25.688Z,28.40
2019-02-25T09:36:54.374Z,27.90
2019-02-25T09:39:23.087Z,25.20
2019-02-25T09:41:51.691Z,24.30
2019-02-25T09:44:20.318Z,25.00
2019-02-25T09:46:49.147Z,25.50
2019-02-25T09:49:17.689Z,24.80
2019-02-25T09:51:46.624Z,24.60
2019-02-25T09:54:15.510Z,24.50
2019-02-25T09:56:44.828Z,25.70
2019-02-25T09:59:13.697Z,25.10
2019-02-25T10:01:42.312Z,26.00
2019-02-25T10:04:11.284Z,23.40
2019-02-25T10:06:39.850Z,22.90
2019-02-25T10:09:08.497Z,24.30
2019-02-25T10:11:37.143Z,22.90
2019-02-25T10:14:05.680Z,23.40
2019-02-25T10:16:34.323Z,22.70
2019-02-25T10:19:03.180Z,20.50
2019-02-25T10:21:33.764Z,20.90
2019-02-25T10:24:02.699Z,20.60
2019-02-25T10:26:31.252Z,21.40
2019-02-25T10:28:59.959Z,23.50
2019-02-25T10:31:28.496Z,22.60
2019-02-25T10:33:57.034Z,22.30
2019-02-25T10:36:25.595Z,23.00
2019-02-25T10:38:54.150Z,24.40
2019-02-25T10:41:23.422Z,26.10
2019-02-25T10:43:53.276Z,28.10
2019-02-25T10:46:21.891Z,28.50
2019-02-25T10:48:54.200Z,27.70
2019-02-25T10:51:20.867Z,28.90
2019-02-25T10:53:51.426Z,27.80
2019-02-25T10:56:28.384Z,27.40
2019-02-25T10:58:57.644Z,27.20
2019-02-25T11:01:27.274Z,28.00
2019-02-25T11:03:55.839Z,29.80
2019-02-25T11:06:43.739Z,29.10
2019-02-25T11:09:22.762Z,27.10
2019-02-25T11:11:52.693Z,27.20
2019-02-25T11:14:21.731Z,28.10
2019-02-25T11:16:52.170Z,26.90
2019-02-25T11:19:22.432Z,26.40
2019-02-25T11:21:51.250Z,29.00
2019-02-25T11:24:21.141Z,27.30
2019-02-25T11:26:50.065Z,28.60
2019-02-25T11:29:18.891Z,28.00
2019-02-25T11:31:49.375Z,28.10
2019-02-25T11:34:17.762Z,25.80
2019-02-25T11:36:50.338Z,25.60
2019-02-25T11:39:18.951Z,24.80
2019-02-25T11:41:47.519Z,24.90
2019-02-25T11:44:35.403Z,23.70
2019-02-25T11:47:04.367Z,24.60
2019-02-25T11:49:32.902Z,25.10
2019-02-25T11:52:01.603Z,24.90
2019-02-25T11:54:30.178Z,24.90
2019-02-25T11:56:58.891Z,26.10
2019-02-25T11:59:27.787Z,27.30
2019-02-25T12:01:56.784Z,24.30
2019-02-25T12:04:25.347Z,23.80
2019-02-25T12:06:54.113Z,24.20
2019-02-25T12:09:22.727Z,23.80
2019-02-25T12:11:51.278Z,24.00
2019-02-25T12:14:19.934Z,25.30
2019-02-25T12:16:48.558Z,25.10
2019-02-25T12:19:18.164Z,23.50
2019-02-25T12:21:46.938Z,26.00
2019-02-25T12:24:15.718Z,22.50
2019-02-25T12:26:44.270Z,23.50
2019-02-25T12:29:12.832Z,24.30
2019-02-25T12:31:41.615Z,22.80
2019-02-25T12:34:10.263Z,22.80
2019-02-25T12:36:38.816Z,24.40
2019-02-25T12:39:07.938Z,24.90
2019-02-25T12:41:36.544Z,24.40
2019-02-25T12:44:05.259Z,23.50
2019-02-25T12:46:33.864Z,23.80
2019-02-25T12:49:02.471Z,23.20
2019-02-25T12:51:31.176Z,23.40
2019-02-25T12:53:59.713Z,23.40
2019-02-25T12:56:28.298Z,23.00
2019-02-25T12:58:56.976Z,24.70
2019-02-25T13:01:25.659Z,23.10
2019-02-25T13:03:54.298Z,23.40
2019-02-25T13:06:23.208Z,25.30
2019-02-25T13:08:51.744Z,24.80
2019-02-25T13:11:20.467Z,23.90
2019-02-25T13:13:49.070Z,22.90
2019-02-25T13:16:17.694Z,23.10
2019-02-25T13:18:46.329Z,24.30
2019-02-25T13:21:14.870Z,25.50
2019-02-25T13:23:43.515Z,26.30
2019-02-25T13:26:12.179Z,25.70
2019-02-25T13:28:41.058Z,25.10
2019-02-25T13:31:10.284Z,24.00
2019-02-25T13:33:39.443Z,23.90
2019-02-25T13:36:30.269Z,24.20
2019-02-25T13:38:58.806Z,26.40
2019-02-25T13:41:27.487Z,25.70
2019-02-25T13:43:56.424Z,26.30
2019-02-25T13:46:25.306Z,26.10
2019-02-25T13:48:53.958Z,27.40
2019-02-25T13:51:22.573Z,27.00
2019-02-25T13:53:51.254Z,27.10
2019-02-25T13:56:19.887Z,26.20
2019-02-25T13:58:50.195Z,28.30
2019-02-25T14:01:18.883Z,27.50
2019-02-25T14:03:47.914Z,26.60
2019-02-25T14:06:16.519Z,26.30
2019-02-25T14:08:45.319Z,27.80
2019-02-25T14:11:14.366Z,27.20
2019-02-25T14:13:45.107Z,27.40
2019-02-25T14:16:13.622Z,27.80
2019-02-25T14:18:42.475Z,26.50
2019-02-25T14:21:11.811Z,26.60
2019-02-25T14:23:40.815Z,26.20
2019-02-25T14:26:09.490Z,27.20
2019-02-25T14:28:39.646Z,27.00
2019-02-25T14:31:09.034Z,27.40
2019-02-25T14:33:38.043Z,26.90
2019-02-25T14:36:07.477Z,27.60
2019-02-25T14:38:37.207Z,27.90
2019-02-25T14:41:06.980Z,28.10
2019-02-25T14:43:41.743Z,28.30
2019-02-25T14:46:07.665Z,28.70
2019-02-25T14:48:37.519Z,29.40
2019-02-25T14:51:06.260Z,29.50
2019-02-25T14:53:34.940Z,29.40
2019-02-25T14:56:04.096Z,30.00
2019-02-25T14:58:35.545Z,29.60
2019-02-25T15:01:03.955Z,30.30
2019-02-25T15:03:32.689Z,29.50
2019-02-25T15:06:01.561Z,28.90
2019-02-25T15:08:30.713Z,29.10
2019-02-25T15:11:02.014Z,29.70
2019-02-25T15:13:30.359Z,28.80
2019-02-25T15:16:00.264Z,30.20
2019-02-25T15:18:31.160Z,29.60
2019-02-25T15:21:00.615Z,29.90
2019-02-25T15:23:30.596Z,29.20
2019-02-25T15:26:05.116Z,30.30
2019-02-25T15:28:29.859Z,30.30
2019-02-25T15:31:00.005Z,30.80
2019-02-25T15:33:30.009Z,30.70
2019-02-25T15:36:01.276Z,31.30
2019-02-25T15:38:31.107Z,30.20
2019-02-25T15:41:01.849Z,30.00
2019-02-25T15:43:32.451Z,31.00
2019-02-25T15:46:01.729Z,31.50
2019-02-25T15:48:30.947Z,31.70
2019-02-25T15:51:00.848Z,32.00
2019-02-25T15:53:29.593Z,32.40
2019-02-25T15:56:01.062Z,33.10
2019-02-25T15:58:28.876Z,33.30
2019-02-25T16:00:57.593Z,33.40
2019-02-25T16:03:26.875Z,33.60
2019-02-25T16:05:59.329Z,33.80
2019-02-25T16:08:26.898Z,35.00
2019-02-25T16:10:58.433Z,35.60
2019-02-25T16:13:27.358Z,35.40
2019-02-25T16:15:56.043Z,35.40
2019-02-25T16:18:27.477Z,36.10
2019-02-25T16:20:54.942Z,36.40
2019-02-25T16:23:25.784Z,36.50
2019-02-25T16:25:56.910Z,36.90
2019-02-25T16:28:25.954Z,37.10
2019-02-25T16:30:54.942Z,37.60
2019-02-25T16:33:24.146Z,38.20
2019-02-25T16:35:53.885Z,38.80
2019-02-25T16:38:24.908Z,39.70
2019-02-25T16:40:56.650Z,40.30
2019-02-25T16:43:23.225Z,40.50
2019-02-25T16:45:52.530Z,40.30
2019-02-25T16:48:24.227Z,41.00
2019-02-25T16:50:51.519Z,42.20
2019-02-25T16:53:20.347Z,42.80
2019-02-25T16:55:49.815Z,42.70
2019-02-25T16:58:19.668Z,42.70
2019-02-25T17:00:48.991Z,43.60
2019-02-25T17:03:17.872Z,44.30
2019-02-25T17:05:47.692Z,44.90
2019-02-25T17:08:18.526Z,45.30
2019-02-25T17:10:48.964Z,45.80
2019-02-25T17:13:17.519Z,46.40
2019-02-25T17:15:46.794Z,46.80
2019-02-25T17:18:16.030Z,47.40
2019-02-25T17:20:45.201Z,47.70
2019-02-25T17:23:34.522Z,47.80
2019-02-25T17:26:05.713Z,47.50
2019-02-25T17:28:34.049Z,47.20
2019-02-25T17:31:02.655Z,47.40
2019-02-25T17:33:32.680Z,48.00
2019-02-25T17:36:01.599Z,48.70
2019-02-25T17:38:30.203Z,49.40
2019-02-25T17:40:59.251Z,49.70
2019-02-25T17:43:29.348Z,50.00
2019-02-25T17:45:58.226Z,51.00
2019-02-25T17:48:27.487Z,51.50
2019-02-25T17:50:57.343Z,51.80
2019-02-25T17:53:28.308Z,52.30
2019-02-25T17:56:01.023Z,53.00
2019-02-25T17:58:29.630Z,52.80
2019-02-25T18:01:00.734Z,53.20
2019-02-25T18:03:29.230Z,54.30
2019-02-25T18:05:58.954Z,54.70
2019-02-25T18:08:29.988Z,55.20
2019-02-25T18:10:58.741Z,55.80
2019-02-25T18:13:28.131Z,56.40
2019-02-25T18:15:57.499Z,56.70
2019-02-25T18:18:27.994Z,56.80
2019-02-25T18:20:56.981Z,57.60
2019-02-25T18:23:26.638Z,57.80
2019-02-25T18:25:58.667Z,58.30
2019-02-25T18:28:26.062Z,59.00
2019-02-25T18:30:54.887Z,59.10
2019-02-25T18:33:25.227Z,59.60
2019-02-25T18:35:53.823Z,60.00
2019-02-25T18:38:23.274Z,60.60
2019-02-25T18:40:52.983Z,60.80
2019-02-25T18:43:22.077Z,61.30
2019-02-25T18:45:52.343Z,61.70
2019-02-25T18:48:22.798Z,61.60
2019-02-25T18:50:52.729Z,61.90
2019-02-25T18:53:22.567Z,62.00
2019-02-25T18:55:54.287Z,61.90
2019-02-25T18:58:22.992Z,63.00
2019-02-25T19:00:52.034Z,62.40
2019-02-25T19:03:21.282Z,62.70
2019-02-25T19:05:51.122Z,63.50
2019-02-25T19:08:22.718Z,63.20
2019-02-25T19:10:53.194Z,63.50
2019-02-25T19:13:23.333Z,64.00
2019-02-25T19:15:54.744Z,64.30
2019-02-25T19:18:23.448Z,64.70
2019-02-25T19:20:53.613Z,64.70
2019-02-25T19:23:23.308Z,65.20
2019-02-25T19:25:52.735Z,65.60
2019-02-25T19:28:23.863Z,65.80
2019-02-25T19:30:52.152Z,66.90
2019-02-25T19:33:22.339Z,66.70
2019-02-25T19:35:52.517Z,66.40
2019-02-25T19:38:22.809Z,66.30
2019-02-25T19:40:53.522Z,66.70
2019-02-25T19:43:22.638Z,67.30
2019-02-25T19:45:51.311Z,67.20
2019-02-25T19:48:21.698Z,67.50
2019-02-25T19:50:51.435Z,67.80
2019-02-25T19:53:20.722Z,67.90
2019-02-25T19:55:51.755Z,68.90
2019-02-25T20:01:23.301Z,68.50
2019-02-25T20:03:53.878Z,68.90
2019-02-25T20:06:23.607Z,69.50
2019-02-25T20:08:55.896Z,69.30
2019-02-25T20:11:25.870Z,69.70
2019-02-25T20:13:55.071Z,69.90
2019-02-25T20:16:27.042Z,69.70
2019-02-25T20:18:55.889Z,70.10
2019-02-25T20:21:26.669Z,70.40
2019-02-25T20:23:56.004Z,70.70
2019-02-25T20:26:26.735Z,71.20
2019-02-25T20:28:55.037Z,71.50
2019-02-25T20:31:23.672Z,71.70
2019-02-25T20:33:53.066Z,71.80
2019-02-25T20:36:24.199Z,71.90
2019-02-25T20:38:53.066Z,71.80
2019-02-25T20:41:22.263Z,72.00
2019-02-25T20:43:53.852Z,72.10
2019-02-25T20:46:23.838Z,72.30
2019-02-25T20:48:53.152Z,72.50
2019-02-25T20:51:22.792Z,72.40
2019-02-25T20:53:53.020Z,72.20
2019-02-25T20:56:22.797Z,72.30
2019-02-25T20:58:52.508Z,72.60
2019-02-25T21:01:21.124Z,72.90
2019-02-25T21:03:50.448Z,73.40
2019-02-25T21:06:21.240Z,73.40
2019-02-25T21:08:49.990Z,73.40
2019-02-25T21:11:18.603Z,73.70
2019-02-25T21:13:47.163Z,73.90
2019-02-25T21:19:04.644Z,74.20
2019-02-25T21:21:34.654Z,74.50
2019-02-25T21:24:06.060Z,74.70
2019-02-25T21:26:36.403Z,75.40
2019-02-25T21:29:06.795Z,75.30
2019-02-25T21:31:35.160Z,75.10
2019-02-25T21:34:04.290Z,74.90
2019-02-25T21:36:33.869Z,75.10
2019-02-25T21:39:04.111Z,75.50
2019-02-25T21:41:32.790Z,75.50
2019-02-25T21:44:01.334Z,75.90
2019-02-25T21:46:31.590Z,76.80
2019-02-25T21:49:03.458Z,76.20
2019-02-25T21:51:49.698Z,76.10
2019-02-25T21:54:17.520Z,77.20
2019-02-25T21:56:46.118Z,76.40
2019-02-25T21:59:17.019Z,76.70
2019-02-25T22:01:45.224Z,77.00
2019-02-25T22:04:15.588Z,77.00
2019-02-25T22:06:47.068Z,77.10
2019-02-25T22:09:14.839Z,77.60
2019-02-25T22:11:43.473Z,77.50
2019-02-25T22:14:12.307Z,77.70
2019-02-25T22:16:44.332Z,77.70
2019-02-25T22:19:14.195Z,78.70
2019-02-25T22:21:43.323Z,79.30
2019-02-25T22:24:11.860Z,79.00
2019-02-25T22:26:40.566Z,78.70
2019-02-25T22:29:09.106Z,78.00
2019-02-25T22:31:39.427Z,78.00
2019-02-25T22:34:08.835Z,78.10
2019-02-25T22:36:41.560Z,78.50
2019-02-25T22:39:09.478Z,78.70
2019-02-25T22:41:40.099Z,79.40
2019-02-25T22:44:08.970Z,79.40
2019-02-25T22:46:39.695Z,79.10
2019-02-25T22:49:09.480Z,79.40
2019-02-25T22:51:38.153Z,79.50
2019-02-25T22:54:10.089Z,79.50
2019-02-25T22:56:37.377Z,79.70
2019-02-25T22:59:05.912Z,79.90
2019-02-25T23:01:36.822Z,80.00
2019-02-25T23:04:05.074Z,80.10
2019-02-25T23:06:33.955Z,80.20
2019-02-25T23:09:02.707Z,80.40
2019-02-25T23:11:31.631Z,80.40
2019-02-25T23:14:00.348Z,80.40
2019-02-25T23:16:28.950Z,80.70
2019-02-25T23:18:57.410Z,80.60
2019-02-25T23:21:28.593Z,80.60
2019-02-25T23:23:58.127Z,80.50
2019-02-25T23:26:27.154Z,80.90
2019-02-25T23:28:57.748Z,80.70
2019-02-25T23:31:29.789Z,81.00
2019-02-25T23:33:57.606Z,81.20
2019-02-25T23:36:26.613Z,81.30
2019-02-25T23:38:57.004Z,81.50
2019-02-25T23:41:25.495Z,82.10
2019-02-25T23:43:54.368Z,81.80
2019-02-25T23:46:25.269Z,82.10
2019-02-25T23:48:53.182Z,81.90
2019-02-25T23:51:42.038Z,82.00
2019-02-25T23:54:12.140Z,82.10
2019-02-25T23:56:43.927Z,82.10
2019-02-25T23:59:14.601Z,82.10
